KTMA/TMA METAR and TAF weather

Enter ICAO airport designator
Station Type Date Time Source
KTMA METAR 2019/12/09 21:55 UTC NOAA

KTMA 092155Z AUTO 20006KT 10SM SCT020 BKN025 BKN038 22/19 A3001 RMK AO2 T02190192


Station Type Date Time Source
KTMA Decoded METAR 2019/12/09 21:55 UTC NOAA

Station name not available
Dec 09, 2019 - 04:55 PM EST / 2019.12.09 2155 UTC
Wind: from the SSW (200 degrees) at 7 MPH (6 KT):0
Visibility: 10 mile(s):0
Sky conditions: mostly cloudy
Temperature: 71.4 F (21.9 C)
Dew Point: 66.6 F (19.2 C)
Relative Humidity: 84%
Pressure (altimeter): 30.01 in. Hg (1016 hPa)
ob: KTMA 092155Z AUTO 20006KT 10SM SCT020 BKN025 BKN038 22/19 A3001 RMK AO2 T02190192
cycle: 22

Station Type Date Time Source
KTMA TAF UTC NOAA

Error!

Example: see airport list